sensor_id;sensor_type;location;lat;lon;timestamp;pressure;altitude;pressure_sealevel;temperature;humidity
37066;BME280;22981;43.080;25.550;2022-07-23T00:01:39;99598.00;;;20.58;50.12
37066;BME280;22981;43.080;25.550;2022-07-23T00:04:07;99593.37;;;20.58;50.21
37066;BME280;22981;43.080;25.550;2022-07-23T00:06:35;99593.92;;;20.58;50.25
37066;BME280;22981;43.080;25.550;2022-07-23T00:09:03;99595.84;;;20.47;50.50
37066;BME280;22981;43.080;25.550;2022-07-23T00:11:30;99594.52;;;20.44;50.60
37066;BME280;22981;43.080;25.550;2022-07-23T00:13:58;99595.63;;;20.43;50.66
37066;BME280;22981;43.080;25.550;2022-07-23T00:16:25;99598.34;;;20.41;50.78
37066;BME280;22981;43.080;25.550;2022-07-23T00:18:53;99591.33;;;20.32;50.95
37066;BME280;22981;43.080;25.550;2022-07-23T00:21:21;99599.03;;;20.17;51.27
37066;BME280;22981;43.080;25.550;2022-07-23T00:23:48;99591.97;;;20.11;51.60
37066;BME280;22981;43.080;25.550;2022-07-23T00:26:16;99593.62;;;20.07;51.85
37066;BME280;22981;43.080;25.550;2022-07-23T00:28:43;99600.70;;;20.03;52.00
37066;BME280;22981;43.080;25.550;2022-07-23T00:31:11;99593.36;;;20.04;52.21
37066;BME280;22981;43.080;25.550;2022-07-23T00:33:38;99586.08;;;19.96;52.34
37066;BME280;22981;43.080;25.550;2022-07-23T00:36:06;99589.11;;;19.87;52.57
37066;BME280;22981;43.080;25.550;2022-07-23T00:38:34;99598.09;;;19.78;52.88
37066;BME280;22981;43.080;25.550;2022-07-23T00:41:02;99593.47;;;19.81;52.91
37066;BME280;22981;43.080;25.550;2022-07-23T00:43:29;99589.63;;;19.87;52.81
37066;BME280;22981;43.080;25.550;2022-07-23T00:45:57;99587.17;;;19.93;52.66
37066;BME280;22981;43.080;25.550;2022-07-23T00:48:24;99585.27;;;19.96;52.59
37066;BME280;22981;43.080;25.550;2022-07-23T00:50:52;99589.92;;;19.85;52.69
37066;BME280;22981;43.080;25.550;2022-07-23T00:53:20;99597.28;;;19.77;52.88
37066;BME280;22981;43.080;25.550;2022-07-23T00:55:48;99592.11;;;19.78;52.89
37066;BME280;22981;43.080;25.550;2022-07-23T00:58:17;99597.56;;;19.75;52.91
37066;BME280;22981;43.080;25.550;2022-07-23T01:00:45;99592.97;;;19.71;52.98
37066;BME280;22981;43.080;25.550;2022-07-23T01:03:13;99593.52;;;19.70;52.99
37066;BME280;22981;43.080;25.550;2022-07-23T01:05:40;99593.23;;;19.72;52.90
37066;BME280;22981;43.080;25.550;2022-07-23T01:08:08;99598.39;;;19.68;52.98
37066;BME280;22981;43.080;25.550;2022-07-23T01:10:35;99589.17;;;19.67;52.99
37066;BME280;22981;43.080;25.550;2022-07-23T01:13:08;99589.44;;;19.68;52.97
37066;BME280;22981;43.080;25.550;2022-07-23T01:15:38;99592.17;;;19.63;53.11
37066;BME280;22981;43.080;25.550;2022-07-23T01:18:06;99586.18;;;19.58;53.19
37066;BME280;22981;43.080;25.550;2022-07-23T01:20:34;99591.63;;;19.53;53.27
37066;BME280;22981;43.080;25.550;2022-07-23T01:23:02;99593.80;;;19.51;53.40
37066;BME280;22981;43.080;25.550;2022-07-23T01:25:30;99589.19;;;19.46;53.56
37066;BME280;22981;43.080;25.550;2022-07-23T01:27:57;99583.50;;;19.45;53.57
37066;BME280;22981;43.080;25.550;2022-07-23T01:30:25;99586.21;;;19.45;53.61
37066;BME280;22981;43.080;25.550;2022-07-23T01:32:53;99579.69;;;19.46;53.69
37066;BME280;22981;43.080;25.550;2022-07-23T01:35:20;99585.94;;;19.49;53.66
37066;BME280;22981;43.080;25.550;2022-07-23T01:37:48;99581.86;;;19.49;53.70
37066;BME280;22981;43.080;25.550;2022-07-23T01:40:15;99587.02;;;19.46;53.71
37066;BME280;22981;43.080;25.550;2022-07-23T01:42:43;99580.51;;;19.39;53.88
37066;BME280;22981;43.080;25.550;2022-07-23T01:45:11;99590.84;;;19.30;54.10
37066;BME280;22981;43.080;25.550;2022-07-23T01:47:38;99585.98;;;19.24;54.23
37066;BME280;22981;43.080;25.550;2022-07-23T01:50:07;99581.91;;;19.16;54.49
37066;BME280;22981;43.080;25.550;2022-07-23T01:52:34;99588.41;;;19.18;54.57
37066;BME280;22981;43.080;25.550;2022-07-23T01:55:03;99588.17;;;19.14;54.74
37066;BME280;22981;43.080;25.550;2022-07-23T01:57:32;99585.72;;;19.15;54.75
37066;BME280;22981;43.080;25.550;2022-07-23T02:00:00;99586.53;;;19.16;54.78
37066;BME280;22981;43.080;25.550;2022-07-23T02:02:28;99584.36;;;19.15;54.86
37066;BME280;22981;43.080;25.550;2022-07-23T02:04:55;99584.63;;;19.09;55.04
37066;BME280;22981;43.080;25.550;2022-07-23T02:07:23;99584.64;;;19.06;55.17
37066;BME280;22981;43.080;25.550;2022-07-23T02:09:51;99588.70;;;19.09;55.17
37066;BME280;22981;43.080;25.550;2022-07-23T02:12:18;99587.34;;;19.04;55.29
37066;BME280;22981;43.080;25.550;2022-07-23T02:14:46;99589.53;;;19.07;55.34
37066;BME280;22981;43.080;25.550;2022-07-23T02:17:14;99585.45;;;19.07;55.27
37066;BME280;22981;43.080;25.550;2022-07-23T02:19:41;99586.80;;;19.09;55.25
37066;BME280;22981;43.080;25.550;2022-07-23T02:22:09;99588.97;;;19.12;55.14
37066;BME280;22981;43.080;25.550;2022-07-23T02:24:37;99586.26;;;19.12;55.11
37066;BME280;22981;43.080;25.550;2022-07-23T02:27:04;99586.26;;;19.12;55.16
37066;BME280;22981;43.080;25.550;2022-07-23T02:29:32;99589.78;;;19.13;55.10
37066;BME280;22981;43.080;25.550;2022-07-23T02:31:59;99585.44;;;19.09;55.19
37066;BME280;22981;43.080;25.550;2022-07-23T02:34:27;99589.53;;;19.07;55.20
37066;BME280;22981;43.080;25.550;2022-07-23T02:36:54;99589.80;;;19.03;55.19
37066;BME280;22981;43.080;25.550;2022-07-23T02:39:22;99595.20;;;18.92;55.40
37066;BME280;22981;43.080;25.550;2022-07-23T02:41:50;99596.57;;;18.82;55.57
37066;BME280;22981;43.080;25.550;2022-07-23T02:44:17;99599.84;;;18.71;55.80
37066;BME280;22981;43.080;25.550;2022-07-23T02:46:45;99603.03;;;18.66;56.01
37066;BME280;22981;43.080;25.550;2022-07-23T02:49:12;99606.00;;;18.67;56.11
37066;BME280;22981;43.080;25.550;2022-07-23T02:51:40;99604.40;;;18.68;56.17
37066;BME280;22981;43.080;25.550;2022-07-23T02:54:07;99605.78;;;18.73;56.13
37066;BME280;22981;43.080;25.550;2022-07-23T02:56:35;99601.44;;;18.75;56.09
37066;BME280;22981;43.080;25.550;2022-07-23T02:59:02;99613.06;;;18.65;56.23
37066;BME280;22981;43.080;25.550;2022-07-23T03:01:30;99613.34;;;18.59;56.35
37066;BME280;22981;43.080;25.550;2022-07-23T03:03:58;99615.77;;;18.55;56.48
37066;BME280;22981;43.080;25.550;2022-07-23T03:06:25;99616.84;;;18.57;56.48
37066;BME280;22981;43.080;25.550;2022-07-23T03:08:53;99620.91;;;18.62;56.40
37066;BME280;22981;43.080;25.550;2022-07-23T03:11:20;99624.45;;;18.65;56.34
37066;BME280;22981;43.080;25.550;2022-07-23T03:13:48;99624.47;;;18.67;56.27
37066;BME280;22981;43.080;25.550;2022-07-23T03:16:15;99628.55;;;18.70;56.24
37066;BME280;22981;43.080;25.550;2022-07-23T03:18:43;99628.55;;;18.70;56.19
37066;BME280;22981;43.080;25.550;2022-07-23T03:21:11;99630.41;;;18.67;56.14
37066;BME280;22981;43.080;25.550;2022-07-23T03:23:39;99640.46;;;18.64;56.15
37066;BME280;22981;43.080;25.550;2022-07-23T03:26:06;99635.30;;;18.60;56.33
37066;BME280;22981;43.080;25.550;2022-07-23T03:28:34;99630.16;;;18.68;56.20
37066;BME280;22981;43.080;25.550;2022-07-23T03:31:02;99635.34;;;18.70;56.11
37066;BME280;22981;43.080;25.550;2022-07-23T03:33:29;99636.45;;;18.71;56.07
37066;BME280;22981;43.080;25.550;2022-07-23T03:35:57;99645.38;;;18.74;56.00
37066;BME280;22981;43.080;25.550;2022-07-23T03:38:24;99638.33;;;18.73;56.03
37066;BME280;22981;43.080;25.550;2022-07-23T03:40:52;99643.97;;;18.67;56.25
37066;BME280;22981;43.080;25.550;2022-07-23T03:43:19;99644.50;;;18.56;56.60
37066;BME280;22981;43.080;25.550;2022-07-23T03:45:47;99645.59;;;18.50;56.83
37066;BME280;22981;43.080;25.550;2022-07-23T03:48:15;99649.91;;;18.46;57.05
37066;BME280;22981;43.080;25.550;2022-07-23T03:50:42;99654.77;;;18.44;57.22
37066;BME280;22981;43.080;25.550;2022-07-23T03:53:10;99651.27;;;18.46;57.27
37066;BME280;22981;43.080;25.550;2022-07-23T03:55:37;99655.87;;;18.48;57.35
37066;BME280;22981;43.080;25.550;2022-07-23T03:58:05;99653.17;;;18.50;57.42
37066;BME280;22981;43.080;25.550;2022-07-23T04:00:33;99653.98;;;18.51;57.44
37066;BME280;22981;43.080;25.550;2022-07-23T04:03:00;99651.00;;;18.52;57.53
37066;BME280;22981;43.080;25.550;2022-07-23T04:05:28;99659.96;;;18.56;57.56
37066;BME280;22981;43.080;25.550;2022-07-23T04:07:55;99663.76;;;18.55;57.64
37066;BME280;22981;43.080;25.550;2022-07-23T04:10:23;99665.38;;;18.56;57.71
37066;BME280;22981;43.080;25.550;2022-07-23T04:12:50;99664.27;;;18.54;57.78
37066;BME280;22981;43.080;25.550;2022-07-23T04:15:18;99664.00;;;18.48;58.03
37066;BME280;22981;43.080;25.550;2022-07-23T04:17:46;99670.48;;;18.44;58.29
37066;BME280;22981;43.080;25.550;2022-07-23T04:20:13;99669.12;;;18.39;58.61
37066;BME280;22981;43.080;25.550;2022-07-23T04:22:41;99664.25;;;18.44;58.66
37066;BME280;22981;43.080;25.550;2022-07-23T04:25:09;99665.34;;;18.45;58.65
37066;BME280;22981;43.080;25.550;2022-07-23T04:27:36;99663.73;;;18.47;58.71
37066;BME280;22981;43.080;25.550;2022-07-23T04:30:04;99663.72;;;18.49;58.74
37066;BME280;22981;43.080;25.550;2022-07-23T04:32:32;99664.03;;;18.56;58.64
37066;BME280;22981;43.080;25.550;2022-07-23T04:35:00;99660.80;;;18.69;58.42
37066;BME280;22981;43.080;25.550;2022-07-23T04:37:27;99665.73;;;18.82;58.12
37066;BME280;22981;43.080;25.550;2022-07-23T04:39:55;99664.66;;;18.96;57.91
37066;BME280;22981;43.080;25.550;2022-07-23T04:42:22;99666.03;;;19.09;57.67
37066;BME280;22981;43.080;25.550;2022-07-23T04:44:50;99658.70;;;19.17;57.52
37066;BME280;22981;43.080;25.550;2022-07-23T04:47:17;99667.66;;;19.30;57.27
37066;BME280;22981;43.080;25.550;2022-07-23T04:49:45;99669.28;;;19.39;56.98
37066;BME280;22981;43.080;25.550;2022-07-23T04:52:13;99664.66;;;19.47;56.72
37066;BME280;22981;43.080;25.550;2022-07-23T04:54:41;99669.53;;;19.52;56.41
37066;BME280;22981;43.080;25.550;2022-07-23T04:57:09;99669.55;;;19.55;56.11
37066;BME280;22981;43.080;25.550;2022-07-23T04:59:36;99664.94;;;19.61;55.89
37066;BME280;22981;43.080;25.550;2022-07-23T05:02:04;99667.67;;;19.66;55.70
37066;BME280;22981;43.080;25.550;2022-07-23T05:04:31;99665.47;;;19.73;55.58
37066;BME280;22981;43.080;25.550;2022-07-23T05:06:59;99672.23;;;19.88;55.35
37066;BME280;22981;43.080;25.550;2022-07-23T05:09:27;99671.94;;;20.00;55.02
37066;BME280;22981;43.080;25.550;2022-07-23T05:11:55;99677.85;;;20.15;54.84
37066;BME280;22981;43.080;25.550;2022-07-23T05:14:22;99681.07;;;20.27;54.59
37066;BME280;22981;43.080;25.550;2022-07-23T05:16:50;99678.84;;;20.37;54.50
37066;BME280;22981;43.080;25.550;2022-07-23T05:19:17;99673.37;;;20.49;54.34
37066;BME280;22981;43.080;25.550;2022-07-23T05:21:45;99671.95;;;20.62;54.05
37066;BME280;22981;43.080;25.550;2022-07-23T05:24:13;99670.81;;;20.73;53.75
37066;BME280;22981;43.080;25.550;2022-07-23T05:26:40;99671.24;;;20.88;53.46
37066;BME280;22981;43.080;25.550;2022-07-23T05:29:08;99674.13;;;21.02;52.99
37066;BME280;22981;43.080;25.550;2022-07-23T05:31:35;99668.89;;;21.13;52.43
37066;BME280;22981;43.080;25.550;2022-07-23T05:36:31;99667.93;;;21.31;52.20
37066;BME280;22981;43.080;25.550;2022-07-23T05:38:59;99667.05;;;21.40;52.17
37066;BME280;22981;43.080;25.550;2022-07-23T05:41:27;99661.53;;;21.50;52.01
37066;BME280;22981;43.080;25.550;2022-07-23T05:43:55;99661.95;;;21.63;51.92
37066;BME280;22981;43.080;25.550;2022-07-23T05:46:22;99656.91;;;21.75;51.68
37066;BME280;22981;43.080;25.550;2022-07-23T05:48:50;99658.13;;;21.88;51.36
37066;BME280;22981;43.080;25.550;2022-07-23T05:51:24;99658.54;;;22.00;51.09
37066;BME280;22981;43.080;25.550;2022-07-23T05:53:52;99658.44;;;22.10;50.82
37066;BME280;22981;43.080;25.550;2022-07-23T05:56:20;99657.53;;;22.20;50.71
37066;BME280;22981;43.080;25.550;2022-07-23T05:58:47;99658.17;;;22.33;50.63
37066;BME280;22981;43.080;25.550;2022-07-23T06:01:15;99579.81;;;21.96;50.49
37066;BME280;22981;43.080;25.550;2022-07-23T06:03:43;99656.77;;;22.57;50.31
37066;BME280;22981;43.080;25.550;2022-07-23T06:06:10;99653.89;;;22.67;50.08
37066;BME280;22981;43.080;25.550;2022-07-23T06:08:38;99650.50;;;22.75;49.71
37066;BME280;22981;43.080;25.550;2022-07-23T06:11:05;99654.15;;;22.87;49.53
37066;BME280;22981;43.080;25.550;2022-07-23T06:13:33;99655.12;;;22.96;49.46
37066;BME280;22981;43.080;25.550;2022-07-23T06:16:01;99651.41;;;23.06;49.28
37066;BME280;22981;43.080;25.550;2022-07-23T06:18:28;99655.00;;;23.20;49.19
37066;BME280;22981;43.080;25.550;2022-07-23T06:20:56;99650.41;;;23.35;49.07
37066;BME280;22981;43.080;25.550;2022-07-23T06:23:23;99655.34;;;23.49;48.99
37066;BME280;22981;43.080;25.550;2022-07-23T06:25:51;99657.84;;;23.62;48.73
37066;BME280;22981;43.080;25.550;2022-07-23T06:28:18;99648.31;;;23.76;48.26
37066;BME280;22981;43.080;25.550;2022-07-23T06:30:46;99645.58;;;23.89;48.10
37066;BME280;22981;43.080;25.550;2022-07-23T06:33:14;99650.80;;;24.02;48.15
37066;BME280;22981;43.080;25.550;2022-07-23T06:35:42;99653.28;;;24.15;47.55
37066;BME280;22981;43.080;25.550;2022-07-23T06:38:10;99648.34;;;24.28;47.20
37066;BME280;22981;43.080;25.550;2022-07-23T06:40:37;99651.68;;;24.41;46.92
37066;BME280;22981;43.080;25.550;2022-07-23T06:43:05;99646.98;;;24.56;46.96
37066;BME280;22981;43.080;25.550;2022-07-23T06:45:32;99642.58;;;24.68;46.98
37066;BME280;22981;43.080;25.550;2022-07-23T06:48:00;99636.86;;;24.79;46.56
37066;BME280;22981;43.080;25.550;2022-07-23T06:50:29;99635.99;;;24.92;46.02
37066;BME280;22981;43.080;25.550;2022-07-23T06:52:56;99641.16;;;25.05;45.82
37066;BME280;22981;43.080;25.550;2022-07-23T06:55:24;99639.78;;;25.18;45.26
37066;BME280;22981;43.080;25.550;2022-07-23T06:57:52;99640.00;;;25.31;45.28
37066;BME280;22981;43.080;25.550;2022-07-23T07:00:19;99631.72;;;25.44;45.18
37066;BME280;22981;43.080;25.550;2022-07-23T07:02:47;99631.30;;;25.60;44.83
37066;BME280;22981;43.080;25.550;2022-07-23T07:05:14;99629.76;;;25.76;44.22
37066;BME280;22981;43.080;25.550;2022-07-23T07:07:42;99625.89;;;25.88;44.13
37066;BME280;22981;43.080;25.550;2022-07-23T07:10:10;99624.06;;;26.04;44.03
37066;BME280;22981;43.080;25.550;2022-07-23T07:12:37;99621.69;;;26.19;43.64
37066;BME280;22981;43.080;25.550;2022-07-23T07:15:05;99623.89;;;26.37;43.36
37066;BME280;22981;43.080;25.550;2022-07-23T07:17:33;99618.72;;;26.56;42.35
37066;BME280;22981;43.080;25.550;2022-07-23T07:20:00;99615.81;;;26.69;42.01
37066;BME280;22981;43.080;25.550;2022-07-23T07:22:28;99617.51;;;26.85;41.68
37066;BME280;22981;43.080;25.550;2022-07-23T07:24:55;99620.87;;;27.00;41.33
37066;BME280;22981;43.080;25.550;2022-07-23T07:27:23;99617.41;;;27.14;41.21
37066;BME280;22981;43.080;25.550;2022-07-23T07:29:51;99617.77;;;27.27;40.88
37066;BME280;22981;43.080;25.550;2022-07-23T07:32:18;99612.41;;;27.39;40.83
37066;BME280;22981;43.080;25.550;2022-07-23T07:34:46;99612.54;;;27.52;40.49
37066;BME280;22981;43.080;25.550;2022-07-23T07:37:14;99608.11;;;27.68;40.06
37066;BME280;22981;43.080;25.550;2022-07-23T07:39:41;99612.27;;;27.83;39.79
37066;BME280;22981;43.080;25.550;2022-07-23T07:42:09;99603.13;;;28.00;39.50
37066;BME280;22981;43.080;25.550;2022-07-23T07:44:37;99605.97;;;28.12;39.17
37066;BME280;22981;43.080;25.550;2022-07-23T07:47:04;99605.28;;;28.30;38.67
37066;BME280;22981;43.080;25.550;2022-07-23T07:49:32;99597.27;;;28.45;38.17
37066;BME280;22981;43.080;25.550;2022-07-23T07:51:59;99599.17;;;28.60;37.85
37066;BME280;22981;43.080;25.550;2022-07-23T07:54:27;99585.73;;;28.79;37.35
37066;BME280;22981;43.080;25.550;2022-07-23T07:56:54;99583.96;;;28.95;37.21
37066;BME280;22981;43.080;25.550;2022-07-23T07:59:22;99580.83;;;29.18;36.83
37066;BME280;22981;43.080;25.550;2022-07-23T08:01:49;99581.89;;;29.32;36.42
37066;BME280;22981;43.080;25.550;2022-07-23T08:04:17;99578.12;;;29.49;36.08
37066;BME280;22981;43.080;25.550;2022-07-23T08:06:45;99580.59;;;29.68;35.50
37066;BME280;22981;43.080;25.550;2022-07-23T08:09:12;99577.82;;;29.87;34.91
37066;BME280;22981;43.080;25.550;2022-07-23T08:11:40;99577.68;;;30.02;34.71
37066;BME280;22981;43.080;25.550;2022-07-23T08:14:08;99577.02;;;30.17;34.48
37066;BME280;22981;43.080;25.550;2022-07-23T08:16:37;99576.52;;;30.33;34.40
37066;BME280;22981;43.080;25.550;2022-07-23T08:19:05;99572.43;;;30.49;33.80
37066;BME280;22981;43.080;25.550;2022-07-23T08:21:32;99574.58;;;30.62;33.63
37066;BME280;22981;43.080;25.550;2022-07-23T08:24:00;99567.66;;;30.74;33.70
37066;BME280;22981;43.080;25.550;2022-07-23T08:26:27;99565.16;;;30.91;33.80
37066;BME280;22981;43.080;25.550;2022-07-23T08:28:55;99563.02;;;31.06;33.22
37066;BME280;22981;43.080;25.550;2022-07-23T08:31:23;99554.34;;;31.14;33.12
37066;BME280;22981;43.080;25.550;2022-07-23T08:33:50;99557.00;;;31.26;33.06
37066;BME280;22981;43.080;25.550;2022-07-23T08:36:18;99559.22;;;31.42;32.62
37066;BME280;22981;43.080;25.550;2022-07-23T08:38:46;99552.00;;;31.54;32.11
37066;BME280;22981;43.080;25.550;2022-07-23T08:41:15;99552.40;;;31.62;31.43
37066;BME280;22981;43.080;25.550;2022-07-23T08:43:44;99552.21;;;31.71;31.14
37066;BME280;22981;43.080;25.550;2022-07-23T08:46:13;99557.30;;;31.84;31.12
37066;BME280;22981;43.080;25.550;2022-07-23T08:48:41;99552.97;;;32.03;30.89
37066;BME280;22981;43.080;25.550;2022-07-23T08:51:09;99554.81;;;32.14;30.63
37066;BME280;22981;43.080;25.550;2022-07-23T08:53:36;99555.62;;;32.25;30.23
37066;BME280;22981;43.080;25.550;2022-07-23T08:56:05;99559.44;;;32.36;29.79
37066;BME280;22981;43.080;25.550;2022-07-23T08:58:33;99558.45;;;32.44;29.26
37066;BME280;22981;43.080;25.550;2022-07-23T09:01:01;99557.56;;;32.50;29.16
37066;BME280;22981;43.080;25.550;2022-07-23T09:03:32;99558.02;;;32.61;29.12
37066;BME280;22981;43.080;25.550;2022-07-23T09:06:00;99561.22;;;32.73;28.84
37066;BME280;22981;43.080;25.550;2022-07-23T09:08:43;99558.44;;;32.83;28.27
37066;BME280;22981;43.080;25.550;2022-07-23T09:11:13;99560.55;;;32.89;27.51
37066;BME280;22981;43.080;25.550;2022-07-23T09:13:50;99561.73;;;32.98;27.93
37066;BME280;22981;43.080;25.550;2022-07-23T09:16:25;99555.36;;;33.07;27.79
37066;BME280;22981;43.080;25.550;2022-07-23T09:18:57;99551.31;;;33.14;27.47
37066;BME280;22981;43.080;25.550;2022-07-23T09:21:33;99551.23;;;33.21;27.18
37066;BME280;22981;43.080;25.550;2022-07-23T09:24:06;99548.15;;;33.26;27.37
37066;BME280;22981;43.080;25.550;2022-07-23T09:26:39;99544.74;;;33.36;27.25
37066;BME280;22981;43.080;25.550;2022-07-23T09:29:16;99545.35;;;33.45;27.11
37066;BME280;22981;43.080;25.550;2022-07-23T09:34:25;99539.58;;;33.57;26.74
37066;BME280;22981;43.080;25.550;2022-07-23T09:36:55;99536.98;;;33.68;26.97
37066;BME280;22981;43.080;25.550;2022-07-23T09:39:29;99537.78;;;33.82;26.61
37066;BME280;22981;43.080;25.550;2022-07-23T09:41:57;99501.80;;;33.76;26.34
37066;BME280;22981;43.080;25.550;2022-07-23T09:44:25;99531.22;;;34.07;25.98
37066;BME280;22981;43.080;25.550;2022-07-23T09:46:57;99530.69;;;34.11;25.83
37066;BME280;22981;43.080;25.550;2022-07-23T09:49:24;99532.77;;;34.18;25.71
37066;BME280;22981;43.080;25.550;2022-07-23T09:51:56;99529.52;;;34.29;25.64
37066;BME280;22981;43.080;25.550;2022-07-23T09:54:30;99525.45;;;34.36;25.41
37066;BME280;22981;43.080;25.550;2022-07-23T09:57:02;99519.80;;;34.46;25.33
37066;BME280;22981;43.080;25.550;2022-07-23T09:59:33;99515.96;;;34.54;25.11
37066;BME280;22981;43.080;25.550;2022-07-23T10:02:02;99519.23;;;34.63;24.87
37066;BME280;22981;43.080;25.550;2022-07-23T10:04:30;99515.95;;;34.71;24.49
37066;BME280;22981;43.080;25.550;2022-07-23T10:07:00;99518.03;;;34.81;24.04
37066;BME280;22981;43.080;25.550;2022-07-23T10:09:34;99514.11;;;34.85;23.79
37066;BME280;22981;43.080;25.550;2022-07-23T10:12:04;99515.38;;;34.92;23.21
37066;BME280;22981;43.080;25.550;2022-07-23T10:14:50;99514.50;;;35.01;23.34
37066;BME280;22981;43.080;25.550;2022-07-23T10:17:18;99509.77;;;35.05;22.99
37066;BME280;22981;43.080;25.550;2022-07-23T10:19:46;99505.99;;;35.03;23.00
37066;BME280;22981;43.080;25.550;2022-07-23T10:22:17;99506.43;;;35.09;22.88
37066;BME280;22981;43.080;25.550;2022-07-23T10:30:45;99492.50;;;35.33;21.96
37066;BME280;22981;43.080;25.550;2022-07-23T10:33:41;99491.11;;;35.29;21.65
37066;BME280;22981;43.080;25.550;2022-07-23T10:36:40;99492.73;;;35.34;21.81
37066;BME280;22981;43.080;25.550;2022-07-23T10:39:12;99484.81;;;35.40;21.74
37066;BME280;22981;43.080;25.550;2022-07-23T10:41:40;99480.13;;;35.47;21.70
37066;BME280;22981;43.080;25.550;2022-07-23T10:44:13;99478.59;;;35.57;21.36
37066;BME280;22981;43.080;25.550;2022-07-23T10:47:04;99474.08;;;35.66;21.38
37066;BME280;22981;43.080;25.550;2022-07-23T10:49:50;99472.11;;;35.70;21.08
37066;BME280;22981;43.080;25.550;2022-07-23T10:52:28;99465.38;;;35.74;21.07
37066;BME280;22981;43.080;25.550;2022-07-23T10:55:38;99466.39;;;35.79;21.11
37066;BME280;22981;43.080;25.550;2022-07-23T10:57:27;99464.41;;;35.80;21.25
37066;BME280;22981;43.080;25.550;2022-07-23T11:02:43;99461.84;;;35.81;21.59
37066;BME280;22981;43.080;25.550;2022-07-23T11:05:19;99461.62;;;35.80;21.02
37066;BME280;22981;43.080;25.550;2022-07-23T11:10:39;99443.34;;;35.82;20.66
37066;BME280;22981;43.080;25.550;2022-07-23T11:16:06;99460.09;;;35.93;21.18
37066;BME280;22981;43.080;25.550;2022-07-23T11:18:54;99450.98;;;35.96;21.17
37066;BME280;22981;43.080;25.550;2022-07-23T11:24:11;99447.23;;;35.98;21.12
37066;BME280;22981;43.080;25.550;2022-07-23T11:26:48;99452.20;;;35.99;20.87
37066;BME280;22981;43.080;25.550;2022-07-23T11:32:02;99442.67;;;36.03;20.70
37066;BME280;22981;43.080;25.550;2022-07-23T11:34:34;99446.45;;;36.05;20.82
37066;BME280;22981;43.080;25.550;2022-07-23T11:37:03;99441.30;;;36.07;20.98
37066;BME280;22981;43.080;25.550;2022-07-23T11:39:32;99406.58;;;35.90;20.90
37066;BME280;22981;43.080;25.550;2022-07-23T11:42:02;99440.12;;;36.11;20.77
37066;BME280;22981;43.080;25.550;2022-07-23T11:44:37;99436.95;;;36.17;20.48
37066;BME280;22981;43.080;25.550;2022-07-23T11:47:08;99437.76;;;36.21;20.00
37066;BME280;22981;43.080;25.550;2022-07-23T11:49:36;99434.56;;;36.22;20.06
37066;BME280;22981;43.080;25.550;2022-07-23T11:52:14;99429.78;;;36.23;20.05
37066;BME280;22981;43.080;25.550;2022-07-23T11:57:27;99432.58;;;36.23;20.07
37066;BME280;22981;43.080;25.550;2022-07-23T11:59:57;99430.19;;;36.21;20.43
37066;BME280;22981;43.080;25.550;2022-07-23T12:02:25;99428.99;;;36.22;20.43
37066;BME280;22981;43.080;25.550;2022-07-23T12:04:53;99426.43;;;36.23;20.32
37066;BME280;22981;43.080;25.550;2022-07-23T12:07:32;99423.03;;;36.20;20.39
37066;BME280;22981;43.080;25.550;2022-07-23T12:10:09;99418.42;;;36.18;20.67
37066;BME280;22981;43.080;25.550;2022-07-23T12:12:38;99416.45;;;36.22;20.51
37066;BME280;22981;43.080;25.550;2022-07-23T12:15:07;99415.48;;;36.24;20.64
37066;BME280;22981;43.080;25.550;2022-07-23T12:17:37;99420.26;;;36.24;20.70
37066;BME280;22981;43.080;25.550;2022-07-23T12:20:07;99405.13;;;36.25;20.59
37066;BME280;22981;43.080;25.550;2022-07-23T12:22:48;99415.88;;;36.30;20.33
37066;BME280;22981;43.080;25.550;2022-07-23T12:25:18;99408.92;;;36.33;20.10
37066;BME280;22981;43.080;25.550;2022-07-23T12:27:46;99405.34;;;36.33;20.02
37066;BME280;22981;43.080;25.550;2022-07-23T12:30:19;99408.52;;;36.35;20.26
37066;BME280;22981;43.080;25.550;2022-07-23T12:32:49;99403.16;;;36.40;20.08
37066;BME280;22981;43.080;25.550;2022-07-23T12:35:17;99399.19;;;36.37;20.33
37066;BME280;22981;43.080;25.550;2022-07-23T12:37:46;99401.56;;;36.39;20.12
37066;BME280;22981;43.080;25.550;2022-07-23T12:40:22;99402.16;;;36.38;20.18
37066;BME280;22981;43.080;25.550;2022-07-23T12:42:53;99404.74;;;36.33;20.02
37066;BME280;22981;43.080;25.550;2022-07-23T12:45:22;99399.95;;;36.30;19.95
37066;BME280;22981;43.080;25.550;2022-07-23T12:47:58;99397.95;;;36.31;20.01
37066;BME280;22981;43.080;25.550;2022-07-23T12:50:41;99402.56;;;36.33;19.85
37066;BME280;22981;43.080;25.550;2022-07-23T12:53:28;99394.00;;;36.32;19.88
37066;BME280;22981;43.080;25.550;2022-07-23T12:56:03;99390.60;;;36.29;19.80
37066;BME280;22981;43.080;25.550;2022-07-23T12:58:38;99386.81;;;36.24;19.97
37066;BME280;22981;43.080;25.550;2022-07-23T13:01:06;99384.02;;;36.20;19.98
37066;BME280;22981;43.080;25.550;2022-07-23T13:03:38;99382.61;;;36.17;20.02
37066;BME280;22981;43.080;25.550;2022-07-23T13:06:08;99378.63;;;36.21;19.99
37066;BME280;22981;43.080;25.550;2022-07-23T13:08:40;99371.26;;;36.23;19.94
37066;BME280;22981;43.080;25.550;2022-07-23T13:11:08;99369.67;;;36.22;19.77
37066;BME280;22981;43.080;25.550;2022-07-23T13:13:36;99367.29;;;36.20;19.93
37066;BME280;22981;43.080;25.550;2022-07-23T13:16:04;99377.23;;;36.21;19.88
37066;BME280;22981;43.080;25.550;2022-07-23T13:18:31;99366.88;;;36.22;19.48
37066;BME280;22981;43.080;25.550;2022-07-23T13:21:00;99368.28;;;36.22;19.26
37066;BME280;22981;43.080;25.550;2022-07-23T13:23:27;99361.30;;;36.18;19.16
37066;BME280;22981;43.080;25.550;2022-07-23T13:25:55;99366.06;;;36.14;19.27
37066;BME280;22981;43.080;25.550;2022-07-23T13:28:23;99368.25;;;36.15;19.32